KAMA/AMA METAR and TAF weather

Enter ICAO airport designator
Station Type Date Time Source
KAMA METAR 2019/04/24 21:53 UTC NOAA

KAMA 242153Z VRB03KT 10SM CLR 21/05 A2987 RMK AO2 SLP091 T02110050


Station Type Date Time Source
KAMA Decoded METAR 2019/04/24 21:53 UTC NOAA

AMARILLO INTERNATIONAL AIRPORT, TX, United States (KAMA) 35-13N 101-43W 1093M
Apr 24, 2019 - 05:53 PM EDT / 2019.04.24 2153 UTC
Wind: Variable at 3 MPH (3 KT):0
Visibility: 10 mile(s):0
Sky conditions: clear
Temperature: 70.0 F (21.1 C)
Dew Point: 41.0 F (5.0 C)
Relative Humidity: 34%
Pressure (altimeter): 29.87 in. Hg (1011 hPa)
ob: KAMA 242153Z VRB03KT 10SM CLR 21/05 A2987 RMK AO2 SLP091 T02110050
cycle: 22

Station Type Date Time Source
KAMA TAF 2019/04/24 18:22 UTC NOAA

TAF KAMA 241720Z 2418/2518 VRB06KT P6SM FEW250
FM251300 29008KT P6SM SKC
FM251400 31011KT P6SM FEW250
FM251600 33016KT P6SM SKC

Example: see airport list